sensor_id;sensor_type;location;lat;lon;timestamp;temperature;humidity
6293;DHT22;3179;54.350;10.102;2023-07-29T00:01:08;20.10;99.90
6293;DHT22;3179;54.350;10.102;2023-07-29T00:03:36;20.10;99.90
6293;DHT22;3179;54.350;10.102;2023-07-29T00:06:03;20.10;99.90
6293;DHT22;3179;54.350;10.102;2023-07-29T00:08:30;20.10;99.90
6293;DHT22;3179;54.350;10.102;2023-07-29T00:10:58;20.00;99.90
6293;DHT22;3179;54.350;10.102;2023-07-29T00:13:24;20.00;99.90
6293;DHT22;3179;54.350;10.102;2023-07-29T00:15:54;20.10;99.90
6293;DHT22;3179;54.350;10.102;2023-07-29T00:18:21;20.00;99.90
6293;DHT22;3179;54.350;10.102;2023-07-29T00:20:48;20.00;99.90
6293;DHT22;3179;54.350;10.102;2023-07-29T00:23:16;20.00;99.90
6293;DHT22;3179;54.350;10.102;2023-07-29T00:25:44;20.00;99.90
6293;DHT22;3179;54.350;10.102;2023-07-29T00:28:13;19.90;99.90
6293;DHT22;3179;54.350;10.102;2023-07-29T00:30:40;20.00;99.90
6293;DHT22;3179;54.350;10.102;2023-07-29T00:33:06;19.90;99.90
6293;DHT22;3179;54.350;10.102;2023-07-29T00:35:34;19.90;99.90
6293;DHT22;3179;54.350;10.102;2023-07-29T00:38:00;19.90;99.90
6293;DHT22;3179;54.350;10.102;2023-07-29T00:40:28;19.90;99.90
6293;DHT22;3179;54.350;10.102;2023-07-29T00:42:55;19.90;99.90
6293;DHT22;3179;54.350;10.102;2023-07-29T00:45:24;19.90;99.90
6293;DHT22;3179;54.350;10.102;2023-07-29T00:47:51;19.90;99.90
6293;DHT22;3179;54.350;10.102;2023-07-29T00:50:18;19.90;99.90
6293;DHT22;3179;54.350;10.102;2023-07-29T00:52:45;19.90;99.90
6293;DHT22;3179;54.350;10.102;2023-07-29T00:55:12;19.80;99.90
6293;DHT22;3179;54.350;10.102;2023-07-29T00:57:39;19.80;99.90
6293;DHT22;3179;54.350;10.102;2023-07-29T01:00:07;19.80;99.90
6293;DHT22;3179;54.350;10.102;2023-07-29T01:02:36;19.80;99.90
6293;DHT22;3179;54.350;10.102;2023-07-29T01:05:03;19.80;99.90
6293;DHT22;3179;54.350;10.102;2023-07-29T01:07:36;19.80;99.90
6293;DHT22;3179;54.350;10.102;2023-07-29T01:12:54;19.80;99.90
6293;DHT22;3179;54.350;10.102;2023-07-29T01:15:28;19.80;99.90
6293;DHT22;3179;54.350;10.102;2023-07-29T01:18:04;19.80;99.90
6293;DHT22;3179;54.350;10.102;2023-07-29T01:20:33;19.70;99.90
6293;DHT22;3179;54.350;10.102;2023-07-29T01:23:02;19.70;99.90
6293;DHT22;3179;54.350;10.102;2023-07-29T01:25:30;19.70;99.90
6293;DHT22;3179;54.350;10.102;2023-07-29T01:27:57;19.70;99.90
6293;DHT22;3179;54.350;10.102;2023-07-29T01:30:30;19.70;99.90
6293;DHT22;3179;54.350;10.102;2023-07-29T01:33:01;19.70;99.90
6293;DHT22;3179;54.350;10.102;2023-07-29T01:35:33;19.60;99.90
6293;DHT22;3179;54.350;10.102;2023-07-29T01:38:04;19.60;99.90
6293;DHT22;3179;54.350;10.102;2023-07-29T01:40:33;19.60;99.90
6293;DHT22;3179;54.350;10.102;2023-07-29T01:43:00;19.60;99.90
6293;DHT22;3179;54.350;10.102;2023-07-29T01:45:29;19.60;99.90
6293;DHT22;3179;54.350;10.102;2023-07-29T01:48:01;19.60;99.90
6293;DHT22;3179;54.350;10.102;2023-07-29T01:50:27;19.60;99.90
6293;DHT22;3179;54.350;10.102;2023-07-29T01:52:54;19.60;99.90
6293;DHT22;3179;54.350;10.102;2023-07-29T01:55:21;19.60;99.90
6293;DHT22;3179;54.350;10.102;2023-07-29T01:57:49;19.50;99.90
6293;DHT22;3179;54.350;10.102;2023-07-29T02:00:17;19.60;99.90
6293;DHT22;3179;54.350;10.102;2023-07-29T02:02:44;19.50;99.90
6293;DHT22;3179;54.350;10.102;2023-07-29T02:05:11;19.50;99.90
6293;DHT22;3179;54.350;10.102;2023-07-29T02:07:38;19.50;99.90
6293;DHT22;3179;54.350;10.102;2023-07-29T02:10:05;19.50;99.90
6293;DHT22;3179;54.350;10.102;2023-07-29T02:12:32;19.50;99.90
6293;DHT22;3179;54.350;10.102;2023-07-29T02:15:01;19.50;99.90
6293;DHT22;3179;54.350;10.102;2023-07-29T02:17:27;19.60;99.90
6293;DHT22;3179;54.350;10.102;2023-07-29T02:19:54;19.50;99.90
6293;DHT22;3179;54.350;10.102;2023-07-29T02:22:21;19.50;99.90
6293;DHT22;3179;54.350;10.102;2023-07-29T02:24:48;19.50;99.90
6293;DHT22;3179;54.350;10.102;2023-07-29T02:27:15;19.50;99.90
6293;DHT22;3179;54.350;10.102;2023-07-29T02:29:41;19.50;99.90
6293;DHT22;3179;54.350;10.102;2023-07-29T02:32:09;19.50;99.90
6293;DHT22;3179;54.350;10.102;2023-07-29T02:34:36;19.50;99.90
6293;DHT22;3179;54.350;10.102;2023-07-29T02:37:03;19.50;99.90
6293;DHT22;3179;54.350;10.102;2023-07-29T02:39:30;19.40;99.90
6293;DHT22;3179;54.350;10.102;2023-07-29T02:41:57;19.40;99.90
6293;DHT22;3179;54.350;10.102;2023-07-29T02:44:25;19.50;99.90
6293;DHT22;3179;54.350;10.102;2023-07-29T02:46:51;19.50;99.90
6293;DHT22;3179;54.350;10.102;2023-07-29T02:49:21;19.50;99.90
6293;DHT22;3179;54.350;10.102;2023-07-29T02:51:48;19.50;99.90
6293;DHT22;3179;54.350;10.102;2023-07-29T02:54:15;19.50;99.90
6293;DHT22;3179;54.350;10.102;2023-07-29T02:56:42;19.50;99.90
6293;DHT22;3179;54.350;10.102;2023-07-29T02:59:08;19.50;99.90
6293;DHT22;3179;54.350;10.102;2023-07-29T03:01:36;19.40;99.90
6293;DHT22;3179;54.350;10.102;2023-07-29T03:04:03;19.40;99.90
6293;DHT22;3179;54.350;10.102;2023-07-29T03:06:31;19.40;99.90
6293;DHT22;3179;54.350;10.102;2023-07-29T03:08:58;19.40;99.90
6293;DHT22;3179;54.350;10.102;2023-07-29T03:11:24;19.40;99.90
6293;DHT22;3179;54.350;10.102;2023-07-29T03:13:51;19.40;99.90
6293;DHT22;3179;54.350;10.102;2023-07-29T03:16:18;19.40;99.90
6293;DHT22;3179;54.350;10.102;2023-07-29T03:18:45;19.40;99.90
6293;DHT22;3179;54.350;10.102;2023-07-29T03:21:12;19.40;99.90
6293;DHT22;3179;54.350;10.102;2023-07-29T03:23:40;19.40;99.90
6293;DHT22;3179;54.350;10.102;2023-07-29T03:26:07;19.30;99.90
6293;DHT22;3179;54.350;10.102;2023-07-29T03:28:38;19.40;99.90
6293;DHT22;3179;54.350;10.102;2023-07-29T03:31:04;19.40;99.90
6293;DHT22;3179;54.350;10.102;2023-07-29T03:33:31;19.40;99.90
6293;DHT22;3179;54.350;10.102;2023-07-29T03:35:58;19.40;99.90
6293;DHT22;3179;54.350;10.102;2023-07-29T03:38:25;19.40;99.90
6293;DHT22;3179;54.350;10.102;2023-07-29T03:40:54;19.40;99.90
6293;DHT22;3179;54.350;10.102;2023-07-29T03:43:21;19.40;99.90
6293;DHT22;3179;54.350;10.102;2023-07-29T03:45:47;19.40;99.90
6293;DHT22;3179;54.350;10.102;2023-07-29T03:48:14;19.40;99.90
6293;DHT22;3179;54.350;10.102;2023-07-29T03:50:41;19.40;99.90
6293;DHT22;3179;54.350;10.102;2023-07-29T03:53:08;19.30;99.90
6293;DHT22;3179;54.350;10.102;2023-07-29T03:55:35;19.40;99.90
6293;DHT22;3179;54.350;10.102;2023-07-29T03:58:03;19.40;99.90
6293;DHT22;3179;54.350;10.102;2023-07-29T04:00:30;19.40;99.90
6293;DHT22;3179;54.350;10.102;2023-07-29T04:02:57;19.40;99.90
6293;DHT22;3179;54.350;10.102;2023-07-29T04:05:24;19.40;99.90
6293;DHT22;3179;54.350;10.102;2023-07-29T04:07:51;19.40;99.90
6293;DHT22;3179;54.350;10.102;2023-07-29T04:10:19;19.40;99.90
6293;DHT22;3179;54.350;10.102;2023-07-29T04:12:46;19.40;99.90
6293;DHT22;3179;54.350;10.102;2023-07-29T04:15:14;19.40;99.90
6293;DHT22;3179;54.350;10.102;2023-07-29T04:17:40;19.50;99.90
6293;DHT22;3179;54.350;10.102;2023-07-29T04:20:08;19.40;99.90
6293;DHT22;3179;54.350;10.102;2023-07-29T04:22:35;19.50;99.90
6293;DHT22;3179;54.350;10.102;2023-07-29T04:25:02;19.40;99.90
6293;DHT22;3179;54.350;10.102;2023-07-29T04:27:30;19.40;99.90
6293;DHT22;3179;54.350;10.102;2023-07-29T04:29:56;19.40;99.90
6293;DHT22;3179;54.350;10.102;2023-07-29T04:32:25;19.40;99.90
6293;DHT22;3179;54.350;10.102;2023-07-29T04:34:52;19.30;99.90
6293;DHT22;3179;54.350;10.102;2023-07-29T04:37:19;19.30;99.90
6293;DHT22;3179;54.350;10.102;2023-07-29T04:39:46;19.30;99.90
6293;DHT22;3179;54.350;10.102;2023-07-29T04:42:13;19.30;99.90
6293;DHT22;3179;54.350;10.102;2023-07-29T04:44:39;19.30;99.90
6293;DHT22;3179;54.350;10.102;2023-07-29T04:47:07;19.20;99.90
6293;DHT22;3179;54.350;10.102;2023-07-29T04:49:35;19.20;99.90
6293;DHT22;3179;54.350;10.102;2023-07-29T04:52:02;19.20;99.90
6293;DHT22;3179;54.350;10.102;2023-07-29T04:54:29;19.20;99.90
6293;DHT22;3179;54.350;10.102;2023-07-29T04:56:56;19.20;99.90
6293;DHT22;3179;54.350;10.102;2023-07-29T04:59:23;19.20;99.90
6293;DHT22;3179;54.350;10.102;2023-07-29T05:01:49;19.20;99.90
6293;DHT22;3179;54.350;10.102;2023-07-29T05:04:16;19.20;99.90
6293;DHT22;3179;54.350;10.102;2023-07-29T05:06:44;19.20;99.90
6293;DHT22;3179;54.350;10.102;2023-07-29T05:09:14;19.20;99.90
6293;DHT22;3179;54.350;10.102;2023-07-29T05:11:41;19.20;99.90
6293;DHT22;3179;54.350;10.102;2023-07-29T05:14:09;19.20;99.90
6293;DHT22;3179;54.350;10.102;2023-07-29T05:16:35;19.20;99.90
6293;DHT22;3179;54.350;10.102;2023-07-29T05:19:02;19.20;99.90
6293;DHT22;3179;54.350;10.102;2023-07-29T05:21:29;19.20;99.90
6293;DHT22;3179;54.350;10.102;2023-07-29T05:23:57;19.30;99.90
6293;DHT22;3179;54.350;10.102;2023-07-29T05:26:24;19.30;99.90
6293;DHT22;3179;54.350;10.102;2023-07-29T05:28:51;19.30;99.90
6293;DHT22;3179;54.350;10.102;2023-07-29T05:31:18;19.40;99.90
6293;DHT22;3179;54.350;10.102;2023-07-29T05:33:45;19.40;99.90
6293;DHT22;3179;54.350;10.102;2023-07-29T05:36:11;19.40;99.90
6293;DHT22;3179;54.350;10.102;2023-07-29T05:38:38;19.50;99.90
6293;DHT22;3179;54.350;10.102;2023-07-29T05:41:06;19.50;99.90
6293;DHT22;3179;54.350;10.102;2023-07-29T05:43:33;19.50;99.90
6293;DHT22;3179;54.350;10.102;2023-07-29T05:46:00;19.50;99.90
6293;DHT22;3179;54.350;10.102;2023-07-29T05:48:27;19.50;99.90
6293;DHT22;3179;54.350;10.102;2023-07-29T05:50:54;19.50;99.90
6293;DHT22;3179;54.350;10.102;2023-07-29T05:53:20;19.60;99.90
6293;DHT22;3179;54.350;10.102;2023-07-29T05:55:47;19.50;99.90
6293;DHT22;3179;54.350;10.102;2023-07-29T05:58:15;19.60;99.90
6293;DHT22;3179;54.350;10.102;2023-07-29T06:00:42;19.60;99.90
6293;DHT22;3179;54.350;10.102;2023-07-29T06:03:09;19.70;99.90
6293;DHT22;3179;54.350;10.102;2023-07-29T06:05:36;19.70;99.90
6293;DHT22;3179;54.350;10.102;2023-07-29T06:08:03;19.70;99.90
6293;DHT22;3179;54.350;10.102;2023-07-29T06:10:29;19.70;99.90
6293;DHT22;3179;54.350;10.102;2023-07-29T06:12:56;19.70;99.90
6293;DHT22;3179;54.350;10.102;2023-07-29T06:15:24;19.80;99.90
6293;DHT22;3179;54.350;10.102;2023-07-29T06:17:51;19.80;99.90
6293;DHT22;3179;54.350;10.102;2023-07-29T06:20:18;19.80;99.90
6293;DHT22;3179;54.350;10.102;2023-07-29T06:22:45;19.80;99.90
6293;DHT22;3179;54.350;10.102;2023-07-29T06:25:11;19.80;99.90
6293;DHT22;3179;54.350;10.102;2023-07-29T06:27:38;19.90;99.90
6293;DHT22;3179;54.350;10.102;2023-07-29T06:30:06;19.90;99.90
6293;DHT22;3179;54.350;10.102;2023-07-29T06:32:34;19.90;99.90
6293;DHT22;3179;54.350;10.102;2023-07-29T06:35:01;19.90;99.90
6293;DHT22;3179;54.350;10.102;2023-07-29T06:37:28;20.00;99.90
6293;DHT22;3179;54.350;10.102;2023-07-29T06:39:55;20.00;99.90
6293;DHT22;3179;54.350;10.102;2023-07-29T06:42:22;20.10;99.90
6293;DHT22;3179;54.350;10.102;2023-07-29T06:44:49;20.10;99.90
6293;DHT22;3179;54.350;10.102;2023-07-29T06:47:15;20.10;99.90
6293;DHT22;3179;54.350;10.102;2023-07-29T06:49:45;20.10;99.90
6293;DHT22;3179;54.350;10.102;2023-07-29T06:52:12;20.20;99.90
6293;DHT22;3179;54.350;10.102;2023-07-29T06:54:39;20.20;99.90
6293;DHT22;3179;54.350;10.102;2023-07-29T06:57:06;20.30;99.90
6293;DHT22;3179;54.350;10.102;2023-07-29T06:59:33;20.30;99.90
6293;DHT22;3179;54.350;10.102;2023-07-29T07:02:00;20.30;99.90
6293;DHT22;3179;54.350;10.102;2023-07-29T07:04:27;20.30;99.90
6293;DHT22;3179;54.350;10.102;2023-07-29T07:06:55;20.30;99.90
6293;DHT22;3179;54.350;10.102;2023-07-29T07:09:22;20.30;99.90
6293;DHT22;3179;54.350;10.102;2023-07-29T07:11:49;20.40;99.90
6293;DHT22;3179;54.350;10.102;2023-07-29T07:14:15;20.40;99.90
6293;DHT22;3179;54.350;10.102;2023-07-29T07:16:42;20.40;99.90
6293;DHT22;3179;54.350;10.102;2023-07-29T07:19:09;20.50;99.90
6293;DHT22;3179;54.350;10.102;2023-07-29T07:21:36;20.50;99.90
6293;DHT22;3179;54.350;10.102;2023-07-29T07:24:04;20.60;99.90
6293;DHT22;3179;54.350;10.102;2023-07-29T07:26:31;20.60;99.90
6293;DHT22;3179;54.350;10.102;2023-07-29T07:28:57;20.60;99.90
6293;DHT22;3179;54.350;10.102;2023-07-29T07:31:24;20.70;99.90
6293;DHT22;3179;54.350;10.102;2023-07-29T07:33:51;20.70;99.90
6293;DHT22;3179;54.350;10.102;2023-07-29T07:36:18;20.70;99.90
6293;DHT22;3179;54.350;10.102;2023-07-29T07:38:44;20.70;99.90
6293;DHT22;3179;54.350;10.102;2023-07-29T07:41:12;20.80;99.90
6293;DHT22;3179;54.350;10.102;2023-07-29T07:43:39;20.80;99.90
6293;DHT22;3179;54.350;10.102;2023-07-29T07:46:06;20.80;99.90
6293;DHT22;3179;54.350;10.102;2023-07-29T07:48:33;20.80;99.90
6293;DHT22;3179;54.350;10.102;2023-07-29T07:50:59;20.80;99.90
6293;DHT22;3179;54.350;10.102;2023-07-29T07:53:26;20.80;99.90
6293;DHT22;3179;54.350;10.102;2023-07-29T07:55:53;20.90;99.90
6293;DHT22;3179;54.350;10.102;2023-07-29T07:58:21;20.90;99.90
6293;DHT22;3179;54.350;10.102;2023-07-29T08:00:47;20.90;99.90
6293;DHT22;3179;54.350;10.102;2023-07-29T08:03:14;21.00;99.90
6293;DHT22;3179;54.350;10.102;2023-07-29T08:05:41;21.00;99.90
6293;DHT22;3179;54.350;10.102;2023-07-29T08:08:08;21.00;99.90
6293;DHT22;3179;54.350;10.102;2023-07-29T08:10:34;21.00;99.90
6293;DHT22;3179;54.350;10.102;2023-07-29T08:13:01;21.10;99.90
6293;DHT22;3179;54.350;10.102;2023-07-29T08:15:29;21.10;99.90
6293;DHT22;3179;54.350;10.102;2023-07-29T08:17:56;21.10;99.90
6293;DHT22;3179;54.350;10.102;2023-07-29T08:20:23;21.20;99.90
6293;DHT22;3179;54.350;10.102;2023-07-29T08:22:50;21.20;99.90
6293;DHT22;3179;54.350;10.102;2023-07-29T08:25:16;21.20;99.90
6293;DHT22;3179;54.350;10.102;2023-07-29T08:27:43;21.20;99.90
6293;DHT22;3179;54.350;10.102;2023-07-29T08:30:10;21.30;99.90
6293;DHT22;3179;54.350;10.102;2023-07-29T08:32:38;21.30;99.90
6293;DHT22;3179;54.350;10.102;2023-07-29T08:35:05;21.40;99.90
6293;DHT22;3179;54.350;10.102;2023-07-29T08:37:32;21.40;99.90
6293;DHT22;3179;54.350;10.102;2023-07-29T08:39:59;21.40;99.90
6293;DHT22;3179;54.350;10.102;2023-07-29T08:42:29;21.50;99.90
6293;DHT22;3179;54.350;10.102;2023-07-29T08:45:01;21.60;99.90
6293;DHT22;3179;54.350;10.102;2023-07-29T08:47:32;21.70;99.90
6293;DHT22;3179;54.350;10.102;2023-07-29T08:50:01;21.70;99.90
6293;DHT22;3179;54.350;10.102;2023-07-29T08:52:29;21.70;99.90
6293;DHT22;3179;54.350;10.102;2023-07-29T08:54:57;21.70;99.90
6293;DHT22;3179;54.350;10.102;2023-07-29T08:57:24;21.80;99.90
6293;DHT22;3179;54.350;10.102;2023-07-29T08:59:52;21.90;99.90
6293;DHT22;3179;54.350;10.102;2023-07-29T09:02:19;21.90;99.90
6293;DHT22;3179;54.350;10.102;2023-07-29T09:04:46;21.90;99.90
6293;DHT22;3179;54.350;10.102;2023-07-29T09:07:14;22.00;99.90
6293;DHT22;3179;54.350;10.102;2023-07-29T09:09:41;22.00;99.90
6293;DHT22;3179;54.350;10.102;2023-07-29T09:12:08;22.00;99.90
6293;DHT22;3179;54.350;10.102;2023-07-29T09:14:36;21.90;99.90
6293;DHT22;3179;54.350;10.102;2023-07-29T09:17:07;21.90;99.90
6293;DHT22;3179;54.350;10.102;2023-07-29T09:19:35;21.90;99.90
6293;DHT22;3179;54.350;10.102;2023-07-29T09:22:02;21.90;99.90
6293;DHT22;3179;54.350;10.102;2023-07-29T09:24:30;21.80;99.90
6293;DHT22;3179;54.350;10.102;2023-07-29T09:26:58;21.80;99.90
6293;DHT22;3179;54.350;10.102;2023-07-29T09:29:28;21.80;99.90
6293;DHT22;3179;54.350;10.102;2023-07-29T09:32:17;21.80;99.90
6293;DHT22;3179;54.350;10.102;2023-07-29T09:34:44;21.70;99.90
6293;DHT22;3179;54.350;10.102;2023-07-29T09:37:15;21.70;99.90
6293;DHT22;3179;54.350;10.102;2023-07-29T09:39:45;21.70;99.90
6293;DHT22;3179;54.350;10.102;2023-07-29T09:42:17;21.70;99.90
6293;DHT22;3179;54.350;10.102;2023-07-29T09:44:43;21.80;99.90
6293;DHT22;3179;54.350;10.102;2023-07-29T09:47:19;21.90;99.90
6293;DHT22;3179;54.350;10.102;2023-07-29T09:49:46;22.10;99.90
6293;DHT22;3179;54.350;10.102;2023-07-29T09:52:15;22.30;99.90
6293;DHT22;3179;54.350;10.102;2023-07-29T09:54:42;22.40;99.90
6293;DHT22;3179;54.350;10.102;2023-07-29T09:57:11;22.50;99.90
6293;DHT22;3179;54.350;10.102;2023-07-29T09:59:38;22.70;99.90
6293;DHT22;3179;54.350;10.102;2023-07-29T10:02:04;22.70;99.90
6293;DHT22;3179;54.350;10.102;2023-07-29T10:04:35;22.60;99.90
6293;DHT22;3179;54.350;10.102;2023-07-29T10:07:02;22.60;99.90
6293;DHT22;3179;54.350;10.102;2023-07-29T10:09:29;22.50;99.90
6293;DHT22;3179;54.350;10.102;2023-07-29T10:11:57;22.50;99.90
6293;DHT22;3179;54.350;10.102;2023-07-29T10:14:28;22.50;99.90
6293;DHT22;3179;54.350;10.102;2023-07-29T10:16:55;22.40;99.90
6293;DHT22;3179;54.350;10.102;2023-07-29T10:19:23;22.40;99.90
6293;DHT22;3179;54.350;10.102;2023-07-29T10:21:51;22.50;99.90
6293;DHT22;3179;54.350;10.102;2023-07-29T10:24:19;22.60;99.90
6293;DHT22;3179;54.350;10.102;2023-07-29T10:26:55;22.60;99.90
6293;DHT22;3179;54.350;10.102;2023-07-29T10:29:24;22.80;99.90
6293;DHT22;3179;54.350;10.102;2023-07-29T10:31:53;23.00;99.90
6293;DHT22;3179;54.350;10.102;2023-07-29T10:34:21;23.10;99.90
6293;DHT22;3179;54.350;10.102;2023-07-29T10:36:49;23.30;99.90
6293;DHT22;3179;54.350;10.102;2023-07-29T10:39:16;23.40;99.90
6293;DHT22;3179;54.350;10.102;2023-07-29T10:41:55;23.60;99.90
6293;DHT22;3179;54.350;10.102;2023-07-29T10:44:48;23.60;99.90
6293;DHT22;3179;54.350;10.102;2023-07-29T10:47:18;23.70;99.90
6293;DHT22;3179;54.350;10.102;2023-07-29T10:49:46;23.60;99.90
6293;DHT22;3179;54.350;10.102;2023-07-29T10:52:14;23.70;99.90
6293;DHT22;3179;54.350;10.102;2023-07-29T10:54:43;23.90;99.90
6293;DHT22;3179;54.350;10.102;2023-07-29T10:57:13;24.00;99.90
6293;DHT22;3179;54.350;10.102;2023-07-29T10:59:40;24.10;99.90
6293;DHT22;3179;54.350;10.102;2023-07-29T11:02:18;24.20;99.90
6293;DHT22;3179;54.350;10.102;2023-07-29T11:04:50;24.40;99.90
6293;DHT22;3179;54.350;10.102;2023-07-29T11:07:24;24.50;99.90
6293;DHT22;3179;54.350;10.102;2023-07-29T11:10:00;24.70;99.90
6293;DHT22;3179;54.350;10.102;2023-07-29T11:12:41;24.70;99.90
6293;DHT22;3179;54.350;10.102;2023-07-29T11:15:20;24.70;99.90
6293;DHT22;3179;54.350;10.102;2023-07-29T11:17:50;24.70;99.90
6293;DHT22;3179;54.350;10.102;2023-07-29T11:20:18;24.60;99.90
6293;DHT22;3179;54.350;10.102;2023-07-29T11:22:46;24.50;99.90
6293;DHT22;3179;54.350;10.102;2023-07-29T11:25:14;24.40;99.90
6293;DHT22;3179;54.350;10.102;2023-07-29T11:27:42;24.20;99.90
6293;DHT22;3179;54.350;10.102;2023-07-29T11:30:10;24.10;99.90
6293;DHT22;3179;54.350;10.102;2023-07-29T11:32:39;23.90;99.90
6293;DHT22;3179;54.350;10.102;2023-07-29T11:35:09;23.90;99.90
6293;DHT22;3179;54.350;10.102;2023-07-29T11:37:37;23.80;99.90
6293;DHT22;3179;54.350;10.102;2023-07-29T11:40:05;23.70;99.90
6293;DHT22;3179;54.350;10.102;2023-07-29T11:42:34;23.70;99.90
6293;DHT22;3179;54.350;10.102;2023-07-29T11:45:00;23.90;99.90
6293;DHT22;3179;54.350;10.102;2023-07-29T11:47:28;24.10;99.90
6293;DHT22;3179;54.350;10.102;2023-07-29T11:49:58;24.40;99.90
6293;DHT22;3179;54.350;10.102;2023-07-29T11:52:27;24.50;99.90
6293;DHT22;3179;54.350;10.102;2023-07-29T11:54:54;24.70;99.90
6293;DHT22;3179;54.350;10.102;2023-07-29T11:57:21;24.90;99.90
6293;DHT22;3179;54.350;10.102;2023-07-29T11:59:48;25.10;99.90
6293;DHT22;3179;54.350;10.102;2023-07-29T12:02:17;25.30;99.90
6293;DHT22;3179;54.350;10.102;2023-07-29T12:04:45;25.40;99.90
6293;DHT22;3179;54.350;10.102;2023-07-29T12:07:13;25.50;99.90
6293;DHT22;3179;54.350;10.102;2023-07-29T12:09:42;25.30;99.90
6293;DHT22;3179;54.350;10.102;2023-07-29T12:12:09;25.10;99.90
6293;DHT22;3179;54.350;10.102;2023-07-29T12:14:36;24.90;99.90
6293;DHT22;3179;54.350;10.102;2023-07-29T12:17:04;24.70;99.90
6293;DHT22;3179;54.350;10.102;2023-07-29T12:19:32;24.50;99.90
6293;DHT22;3179;54.350;10.102;2023-07-29T12:22:00;24.50;99.90
6293;DHT22;3179;54.350;10.102;2023-07-29T12:24:26;24.70;99.90
6293;DHT22;3179;54.350;10.102;2023-07-29T12:26:55;24.70;99.90
6293;DHT22;3179;54.350;10.102;2023-07-29T12:29:21;24.60;99.90
6293;DHT22;3179;54.350;10.102;2023-07-29T12:31:49;24.50;99.90
6293;DHT22;3179;54.350;10.102;2023-07-29T12:34:25;24.50;99.90
6293;DHT22;3179;54.350;10.102;2023-07-29T12:36:52;24.50;99.90
6293;DHT22;3179;54.350;10.102;2023-07-29T12:39:21;24.40;99.90
6293;DHT22;3179;54.350;10.102;2023-07-29T12:41:49;24.30;99.90
6293;DHT22;3179;54.350;10.102;2023-07-29T12:44:18;24.30;99.90
6293;DHT22;3179;54.350;10.102;2023-07-29T12:46:45;24.30;99.90
6293;DHT22;3179;54.350;10.102;2023-07-29T12:49:12;24.30;99.90
6293;DHT22;3179;54.350;10.102;2023-07-29T12:51:38;24.30;99.90
6293;DHT22;3179;54.350;10.102;2023-07-29T12:54:05;24.50;99.90
6293;DHT22;3179;54.350;10.102;2023-07-29T12:56:32;24.70;99.90
6293;DHT22;3179;54.350;10.102;2023-07-29T12:59:00;24.70;99.90
6293;DHT22;3179;54.350;10.102;2023-07-29T13:01:28;24.60;99.90
6293;DHT22;3179;54.350;10.102;2023-07-29T13:03:55;24.60;99.90
6293;DHT22;3179;54.350;10.102;2023-07-29T13:06:22;24.60;99.90
6293;DHT22;3179;54.350;10.102;2023-07-29T13:08:49;24.50;99.90
6293;DHT22;3179;54.350;10.102;2023-07-29T13:11:16;24.50;99.90
6293;DHT22;3179;54.350;10.102;2023-07-29T13:13:43;24.50;99.90
6293;DHT22;3179;54.350;10.102;2023-07-29T13:16:11;24.70;99.90
6293;DHT22;3179;54.350;10.102;2023-07-29T13:18:39;24.70;99.90
6293;DHT22;3179;54.350;10.102;2023-07-29T13:21:06;24.70;99.90
6293;DHT22;3179;54.350;10.102;2023-07-29T13:23:33;24.80;99.90
6293;DHT22;3179;54.350;10.102;2023-07-29T13:26:00;25.10;99.90
6293;DHT22;3179;54.350;10.102;2023-07-29T13:28:27;25.20;99.90
6293;DHT22;3179;54.350;10.102;2023-07-29T13:30:54;25.50;99.90
6293;DHT22;3179;54.350;10.102;2023-07-29T13:33:20;25.70;99.90
6293;DHT22;3179;54.350;10.102;2023-07-29T13:35:49;25.80;99.90
6293;DHT22;3179;54.350;10.102;2023-07-29T13:38:15;25.60;99.90
6293;DHT22;3179;54.350;10.102;2023-07-29T13:40:42;25.60;99.90
6293;DHT22;3179;54.350;10.102;2023-07-29T13:43:09;25.70;99.90
6293;DHT22;3179;54.350;10.102;2023-07-29T13:45:36;25.90;99.90
6293;DHT22;3179;54.350;10.102;2023-07-29T13:48:03;26.10;99.90
6293;DHT22;3179;54.350;10.102;2023-07-29T13:50:30;26.20;99.90
6293;DHT22;3179;54.350;10.102;2023-07-29T13:52:58;26.30;99.90
6293;DHT22;3179;54.350;10.102;2023-07-29T13:55:25;26.40;99.90
6293;DHT22;3179;54.350;10.102;2023-07-29T13:57:52;26.30;99.90
6293;DHT22;3179;54.350;10.102;2023-07-29T14:00:19;26.20;99.90
6293;DHT22;3179;54.350;10.102;2023-07-29T14:02:46;25.90;99.90
6293;DHT22;3179;54.350;10.102;2023-07-29T14:05:12;25.80;99.90
6293;DHT22;3179;54.350;10.102;2023-07-29T14:07:39;25.70;99.90
6293;DHT22;3179;54.350;10.102;2023-07-29T14:10:08;25.80;99.90
6293;DHT22;3179;54.350;10.102;2023-07-29T14:12:35;26.00;99.90
6293;DHT22;3179;54.350;10.102;2023-07-29T14:15:02;26.10;99.90
6293;DHT22;3179;54.350;10.102;2023-07-29T14:17:29;26.00;99.90
6293;DHT22;3179;54.350;10.102;2023-07-29T14:19:56;25.90;99.90
6293;DHT22;3179;54.350;10.102;2023-07-29T14:22:22;25.90;99.90
6293;DHT22;3179;54.350;10.102;2023-07-29T14:24:49;25.70;99.90
6293;DHT22;3179;54.350;10.102;2023-07-29T14:27:17;25.60;99.90
6293;DHT22;3179;54.350;10.102;2023-07-29T14:29:44;25.60;99.90
6293;DHT22;3179;54.350;10.102;2023-07-29T14:32:11;25.90;99.90
6293;DHT22;3179;54.350;10.102;2023-07-29T14:34:38;26.00;99.90
6293;DHT22;3179;54.350;10.102;2023-07-29T14:37:05;26.00;99.90
6293;DHT22;3179;54.350;10.102;2023-07-29T14:39:32;26.20;99.90
6293;DHT22;3179;54.350;10.102;2023-07-29T14:41:59;26.20;99.90
6293;DHT22;3179;54.350;10.102;2023-07-29T14:44:27;26.10;99.90
6293;DHT22;3179;54.350;10.102;2023-07-29T14:46:54;26.00;99.90
6293;DHT22;3179;54.350;10.102;2023-07-29T14:49:21;26.00;99.90
6293;DHT22;3179;54.350;10.102;2023-07-29T14:51:47;25.90;99.90
6293;DHT22;3179;54.350;10.102;2023-07-29T14:54:14;26.00;99.90
6293;DHT22;3179;54.350;10.102;2023-07-29T14:56:41;26.20;99.90
6293;DHT22;3179;54.350;10.102;2023-07-29T14:59:08;26.40;99.90
6293;DHT22;3179;54.350;10.102;2023-07-29T15:01:36;26.40;99.90
6293;DHT22;3179;54.350;10.102;2023-07-29T15:04:03;26.30;99.90
6293;DHT22;3179;54.350;10.102;2023-07-29T15:06:30;26.20;99.90
6293;DHT22;3179;54.350;10.102;2023-07-29T15:08:57;26.20;99.90
6293;DHT22;3179;54.350;10.102;2023-07-29T15:11:24;26.30;99.90
6293;DHT22;3179;54.350;10.102;2023-07-29T15:13:50;26.30;99.90
6293;DHT22;3179;54.350;10.102;2023-07-29T15:16:17;26.30;99.90
6293;DHT22;3179;54.350;10.102;2023-07-29T15:18:45;26.40;99.90
6293;DHT22;3179;54.350;10.102;2023-07-29T15:21:12;26.50;99.90
6293;DHT22;3179;54.350;10.102;2023-07-29T15:23:39;26.50;99.90
6293;DHT22;3179;54.350;10.102;2023-07-29T15:26:05;26.50;99.90
6293;DHT22;3179;54.350;10.102;2023-07-29T15:28:32;26.60;99.90
6293;DHT22;3179;54.350;10.102;2023-07-29T15:30:59;26.60;99.90
6293;DHT22;3179;54.350;10.102;2023-07-29T15:33:26;26.50;99.90
6293;DHT22;3179;54.350;10.102;2023-07-29T15:35:54;26.50;99.90
6293;DHT22;3179;54.350;10.102;2023-07-29T15:38:21;26.50;99.90
6293;DHT22;3179;54.350;10.102;2023-07-29T15:40:47;26.30;99.90
6293;DHT22;3179;54.350;10.102;2023-07-29T15:43:16;26.30;99.90
6293;DHT22;3179;54.350;10.102;2023-07-29T15:45:43;26.20;99.90
6293;DHT22;3179;54.350;10.102;2023-07-29T15:48:10;26.20;99.90
6293;DHT22;3179;54.350;10.102;2023-07-29T15:50:38;26.30;99.90